sensor_id;sensor_type;location;lat;lon;timestamp;P1;durP1;ratioP1;P2;durP2;ratioP2
76582;SDS011;65462;52.148;7.940;2023-04-01T00:01:29;4.60;;;3.22;;
76582;SDS011;65462;52.148;7.940;2023-04-01T00:03:55;5.45;;;3.35;;
76582;SDS011;65462;52.148;7.940;2023-04-01T00:06:21;6.45;;;3.42;;
76582;SDS011;65462;52.148;7.940;2023-04-01T00:08:47;6.60;;;3.22;;
76582;SDS011;65462;52.148;7.940;2023-04-01T00:11:12;4.55;;;3.00;;
76582;SDS011;65462;52.148;7.940;2023-04-01T00:13:38;7.15;;;3.40;;
76582;SDS011;65462;52.148;7.940;2023-04-01T00:16:04;6.28;;;3.55;;
76582;SDS011;65462;52.148;7.940;2023-04-01T00:18:30;6.03;;;3.25;;
76582;SDS011;65462;52.148;7.940;2023-04-01T00:20:55;6.13;;;3.30;;
76582;SDS011;65462;52.148;7.940;2023-04-01T00:23:21;5.57;;;3.00;;
76582;SDS011;65462;52.148;7.940;2023-04-01T00:25:46;5.25;;;3.35;;
76582;SDS011;65462;52.148;7.940;2023-04-01T00:28:17;6.55;;;3.08;;
76582;SDS011;65462;52.148;7.940;2023-04-01T00:30:43;5.18;;;2.97;;
76582;SDS011;65462;52.148;7.940;2023-04-01T00:33:08;8.00;;;3.75;;
76582;SDS011;65462;52.148;7.940;2023-04-01T00:35:34;5.45;;;3.20;;
76582;SDS011;65462;52.148;7.940;2023-04-01T00:37:59;5.35;;;3.20;;
76582;SDS011;65462;52.148;7.940;2023-04-01T00:42:55;6.78;;;3.28;;
76582;SDS011;65462;52.148;7.940;2023-04-01T00:45:28;6.55;;;3.05;;
76582;SDS011;65462;52.148;7.940;2023-04-01T00:48:03;4.72;;;3.10;;
76582;SDS011;65462;52.148;7.940;2023-04-01T00:50:32;6.72;;;3.47;;
76582;SDS011;65462;52.148;7.940;2023-04-01T00:52:59;5.40;;;3.72;;
76582;SDS011;65462;52.148;7.940;2023-04-01T00:55:26;6.55;;;3.50;;
76582;SDS011;65462;52.148;7.940;2023-04-01T00:57:53;6.03;;;3.47;;
76582;SDS011;65462;52.148;7.940;2023-04-01T01:00:22;5.95;;;3.65;;
76582;SDS011;65462;52.148;7.940;2023-04-01T01:02:47;4.97;;;3.45;;
76582;SDS011;65462;52.148;7.940;2023-04-01T01:05:15;9.77;;;4.60;;
76582;SDS011;65462;52.148;7.940;2023-04-01T01:10:33;6.00;;;3.95;;
76582;SDS011;65462;52.148;7.940;2023-04-01T01:16:04;7.25;;;4.13;;
76582;SDS011;65462;52.148;7.940;2023-04-01T01:29:42;6.57;;;3.63;;
76582;SDS011;65462;52.148;7.940;2023-04-01T01:34:55;7.07;;;3.25;;
76582;SDS011;65462;52.148;7.940;2023-04-01T01:37:41;6.03;;;3.65;;
76582;SDS011;65462;52.148;7.940;2023-04-01T01:40:10;4.00;;;2.92;;
76582;SDS011;65462;52.148;7.940;2023-04-01T01:42:39;5.63;;;2.90;;
76582;SDS011;65462;52.148;7.940;2023-04-01T01:45:08;4.35;;;3.00;;
76582;SDS011;65462;52.148;7.940;2023-04-01T01:47:36;4.68;;;2.65;;
76582;SDS011;65462;52.148;7.940;2023-04-01T01:50:02;4.68;;;2.55;;
76582;SDS011;65462;52.148;7.940;2023-04-01T01:52:30;4.38;;;2.83;;
76582;SDS011;65462;52.148;7.940;2023-04-01T01:54:56;3.38;;;2.47;;
76582;SDS011;65462;52.148;7.940;2023-04-01T01:57:26;4.15;;;2.60;;
76582;SDS011;65462;52.148;7.940;2023-04-01T02:00:16;4.25;;;2.70;;
76582;SDS011;65462;52.148;7.940;2023-04-01T02:02:42;6.13;;;2.75;;
76582;SDS011;65462;52.148;7.940;2023-04-01T02:05:10;4.15;;;2.20;;
76582;SDS011;65462;52.148;7.940;2023-04-01T02:07:40;5.05;;;2.42;;
76582;SDS011;65462;52.148;7.940;2023-04-01T02:10:12;4.28;;;2.50;;
76582;SDS011;65462;52.148;7.940;2023-04-01T02:12:37;4.78;;;2.50;;
76582;SDS011;65462;52.148;7.940;2023-04-01T02:15:05;5.13;;;2.70;;
76582;SDS011;65462;52.148;7.940;2023-04-01T02:17:34;3.58;;;2.42;;
76582;SDS011;65462;52.148;7.940;2023-04-01T02:20:04;4.95;;;2.65;;
76582;SDS011;65462;52.148;7.940;2023-04-01T02:22:32;4.97;;;2.90;;
76582;SDS011;65462;52.148;7.940;2023-04-01T02:25:08;4.03;;;2.50;;
76582;SDS011;65462;52.148;7.940;2023-04-01T02:27:35;3.47;;;2.67;;
76582;SDS011;65462;52.148;7.940;2023-04-01T02:30:02;3.22;;;2.80;;
76582;SDS011;65462;52.148;7.940;2023-04-01T02:32:28;3.75;;;3.08;;
76582;SDS011;65462;52.148;7.940;2023-04-01T02:34:55;4.55;;;3.15;;
76582;SDS011;65462;52.148;7.940;2023-04-01T02:37:21;5.03;;;2.85;;
76582;SDS011;65462;52.148;7.940;2023-04-01T02:39:47;5.13;;;2.83;;
76582;SDS011;65462;52.148;7.940;2023-04-01T02:42:13;4.20;;;2.78;;
76582;SDS011;65462;52.148;7.940;2023-04-01T02:44:39;3.17;;;2.38;;
76582;SDS011;65462;52.148;7.940;2023-04-01T02:47:04;5.40;;;3.20;;
76582;SDS011;65462;52.148;7.940;2023-04-01T02:49:30;4.13;;;2.60;;
76582;SDS011;65462;52.148;7.940;2023-04-01T02:51:55;4.38;;;2.75;;
76582;SDS011;65462;52.148;7.940;2023-04-01T02:54:21;3.58;;;2.65;;
76582;SDS011;65462;52.148;7.940;2023-04-01T02:56:46;4.40;;;2.83;;
76582;SDS011;65462;52.148;7.940;2023-04-01T02:59:11;5.57;;;3.28;;
76582;SDS011;65462;52.148;7.940;2023-04-01T03:01:37;3.65;;;3.05;;
76582;SDS011;65462;52.148;7.940;2023-04-01T03:04:02;4.53;;;3.05;;
76582;SDS011;65462;52.148;7.940;2023-04-01T03:06:27;3.97;;;3.10;;
76582;SDS011;65462;52.148;7.940;2023-04-01T03:08:53;4.00;;;3.20;;
76582;SDS011;65462;52.148;7.940;2023-04-01T03:11:18;4.53;;;3.08;;
76582;SDS011;65462;52.148;7.940;2023-04-01T03:13:43;4.07;;;3.10;;
76582;SDS011;65462;52.148;7.940;2023-04-01T03:16:08;4.50;;;3.15;;
76582;SDS011;65462;52.148;7.940;2023-04-01T03:18:34;4.03;;;2.95;;
76582;SDS011;65462;52.148;7.940;2023-04-01T03:21:12;4.93;;;2.92;;
76582;SDS011;65462;52.148;7.940;2023-04-01T03:23:42;3.33;;;3.00;;
76582;SDS011;65462;52.148;7.940;2023-04-01T03:26:07;3.42;;;2.78;;
76582;SDS011;65462;52.148;7.940;2023-04-01T03:28:33;4.38;;;3.00;;
76582;SDS011;65462;52.148;7.940;2023-04-01T03:30:58;4.28;;;3.40;;
76582;SDS011;65462;52.148;7.940;2023-04-01T03:33:23;3.50;;;2.97;;
76582;SDS011;65462;52.148;7.940;2023-04-01T03:35:48;3.85;;;3.08;;
76582;SDS011;65462;52.148;7.940;2023-04-01T03:38:16;4.18;;;2.90;;
76582;SDS011;65462;52.148;7.940;2023-04-01T03:40:42;3.50;;;2.53;;
76582;SDS011;65462;52.148;7.940;2023-04-01T03:43:08;4.07;;;3.05;;
76582;SDS011;65462;52.148;7.940;2023-04-01T03:45:34;3.30;;;2.58;;
76582;SDS011;65462;52.148;7.940;2023-04-01T03:48:00;3.15;;;2.65;;
76582;SDS011;65462;52.148;7.940;2023-04-01T03:50:25;3.47;;;2.80;;
76582;SDS011;65462;52.148;7.940;2023-04-01T03:52:51;3.65;;;2.47;;
76582;SDS011;65462;52.148;7.940;2023-04-01T03:55:16;3.72;;;2.50;;
76582;SDS011;65462;52.148;7.940;2023-04-01T03:57:43;3.90;;;2.55;;
76582;SDS011;65462;52.148;7.940;2023-04-01T04:00:08;3.50;;;2.33;;
76582;SDS011;65462;52.148;7.940;2023-04-01T04:02:34;2.92;;;2.20;;
76582;SDS011;65462;52.148;7.940;2023-04-01T04:05:00;3.28;;;2.40;;
76582;SDS011;65462;52.148;7.940;2023-04-01T04:07:25;3.80;;;2.35;;
76582;SDS011;65462;52.148;7.940;2023-04-01T04:09:51;2.53;;;2.10;;
76582;SDS011;65462;52.148;7.940;2023-04-01T04:12:16;3.45;;;2.63;;
76582;SDS011;65462;52.148;7.940;2023-04-01T04:14:41;2.60;;;2.20;;
76582;SDS011;65462;52.148;7.940;2023-04-01T04:17:06;2.83;;;2.40;;
76582;SDS011;65462;52.148;7.940;2023-04-01T04:19:33;2.90;;;2.33;;
76582;SDS011;65462;52.148;7.940;2023-04-01T04:21:58;3.45;;;2.30;;
76582;SDS011;65462;52.148;7.940;2023-04-01T04:24:26;2.90;;;2.30;;
76582;SDS011;65462;52.148;7.940;2023-04-01T04:26:52;3.15;;;2.63;;
76582;SDS011;65462;52.148;7.940;2023-04-01T04:29:17;2.72;;;2.30;;
76582;SDS011;65462;52.148;7.940;2023-04-01T04:31:43;5.28;;;2.30;;
76582;SDS011;65462;52.148;7.940;2023-04-01T04:34:08;3.08;;;2.47;;
76582;SDS011;65462;52.148;7.940;2023-04-01T04:36:33;4.03;;;2.63;;
76582;SDS011;65462;52.148;7.940;2023-04-01T04:38:59;3.10;;;2.10;;
76582;SDS011;65462;52.148;7.940;2023-04-01T04:41:27;2.50;;;2.20;;
76582;SDS011;65462;52.148;7.940;2023-04-01T04:43:53;2.72;;;2.28;;
76582;SDS011;65462;52.148;7.940;2023-04-01T04:46:20;3.13;;;2.60;;
76582;SDS011;65462;52.148;7.940;2023-04-01T04:48:46;3.70;;;2.75;;
76582;SDS011;65462;52.148;7.940;2023-04-01T04:51:12;2.80;;;2.50;;
76582;SDS011;65462;52.148;7.940;2023-04-01T04:53:41;3.25;;;2.70;;
76582;SDS011;65462;52.148;7.940;2023-04-01T04:56:06;3.28;;;2.88;;
76582;SDS011;65462;52.148;7.940;2023-04-01T04:58:32;3.50;;;2.83;;
76582;SDS011;65462;52.148;7.940;2023-04-01T05:00:57;4.38;;;3.10;;
76582;SDS011;65462;52.148;7.940;2023-04-01T05:03:22;3.47;;;2.92;;
76582;SDS011;65462;52.148;7.940;2023-04-01T05:05:51;4.90;;;3.13;;
76582;SDS011;65462;52.148;7.940;2023-04-01T05:08:17;5.20;;;3.08;;
76582;SDS011;65462;52.148;7.940;2023-04-01T05:10:42;3.70;;;3.28;;
76582;SDS011;65462;52.148;7.940;2023-04-01T05:13:08;4.00;;;2.95;;
76582;SDS011;65462;52.148;7.940;2023-04-01T05:15:33;4.25;;;3.17;;
76582;SDS011;65462;52.148;7.940;2023-04-01T05:17:58;4.55;;;3.33;;
76582;SDS011;65462;52.148;7.940;2023-04-01T05:20:24;4.20;;;3.25;;
76582;SDS011;65462;52.148;7.940;2023-04-01T05:22:49;5.78;;;3.55;;
76582;SDS011;65462;52.148;7.940;2023-04-01T05:25:15;4.95;;;3.65;;
76582;SDS011;65462;52.148;7.940;2023-04-01T05:27:40;6.20;;;3.38;;
76582;SDS011;65462;52.148;7.940;2023-04-01T05:30:05;4.53;;;3.35;;
76582;SDS011;65462;52.148;7.940;2023-04-01T05:32:31;4.70;;;3.60;;
76582;SDS011;65462;52.148;7.940;2023-04-01T05:34:56;4.80;;;3.50;;
76582;SDS011;65462;52.148;7.940;2023-04-01T05:37:22;4.20;;;3.45;;
76582;SDS011;65462;52.148;7.940;2023-04-01T05:39:47;4.10;;;3.33;;
76582;SDS011;65462;52.148;7.940;2023-04-01T05:42:13;3.85;;;3.13;;
76582;SDS011;65462;52.148;7.940;2023-04-01T05:44:38;4.18;;;3.40;;
76582;SDS011;65462;52.148;7.940;2023-04-01T05:47:04;4.25;;;3.40;;
76582;SDS011;65462;52.148;7.940;2023-04-01T05:49:30;4.20;;;3.60;;
76582;SDS011;65462;52.148;7.940;2023-04-01T05:51:55;3.78;;;2.92;;
76582;SDS011;65462;52.148;7.940;2023-04-01T05:54:21;5.97;;;3.58;;
76582;SDS011;65462;52.148;7.940;2023-04-01T05:56:46;4.18;;;3.28;;
76582;SDS011;65462;52.148;7.940;2023-04-01T05:59:12;3.88;;;3.20;;
76582;SDS011;65462;52.148;7.940;2023-04-01T06:01:38;5.53;;;3.25;;
76582;SDS011;65462;52.148;7.940;2023-04-01T06:04:03;3.83;;;3.05;;
76582;SDS011;65462;52.148;7.940;2023-04-01T06:06:30;4.20;;;3.13;;
76582;SDS011;65462;52.148;7.940;2023-04-01T06:09:06;4.30;;;3.40;;
76582;SDS011;65462;52.148;7.940;2023-04-01T06:31:16;5.15;;;3.25;;
76582;SDS011;65462;52.148;7.940;2023-04-01T06:47:45;4.32;;;3.17;;
76582;SDS011;65462;52.148;7.940;2023-04-01T06:53:21;4.07;;;2.85;;
76582;SDS011;65462;52.148;7.940;2023-04-01T06:56:00;4.15;;;2.83;;
76582;SDS011;65462;52.148;7.940;2023-04-01T06:58:44;3.65;;;2.78;;
76582;SDS011;65462;52.148;7.940;2023-04-01T07:01:15;3.95;;;2.88;;
76582;SDS011;65462;52.148;7.940;2023-04-01T07:04:10;4.55;;;2.80;;
76582;SDS011;65462;52.148;7.940;2023-04-01T07:06:39;5.00;;;3.03;;
76582;SDS011;65462;52.148;7.940;2023-04-01T07:09:09;4.20;;;3.03;;
76582;SDS011;65462;52.148;7.940;2023-04-01T07:11:37;3.67;;;2.58;;
76582;SDS011;65462;52.148;7.940;2023-04-01T07:14:25;4.40;;;3.50;;
76582;SDS011;65462;52.148;7.940;2023-04-01T07:19:45;4.70;;;3.60;;
76582;SDS011;65462;52.148;7.940;2023-04-01T07:22:51;3.97;;;3.05;;
76582;SDS011;65462;52.148;7.940;2023-04-01T07:25:15;4.65;;;3.53;;
76582;SDS011;65462;52.148;7.940;2023-04-01T07:27:43;4.68;;;3.38;;
76582;SDS011;65462;52.148;7.940;2023-04-01T07:30:17;3.70;;;3.08;;
76582;SDS011;65462;52.148;7.940;2023-04-01T07:35:23;4.63;;;3.28;;
76582;SDS011;65462;52.148;7.940;2023-04-01T07:49:20;4.22;;;3.47;;
76582;SDS011;65462;52.148;7.940;2023-04-01T07:54:28;5.05;;;3.78;;
76582;SDS011;65462;52.148;7.940;2023-04-01T08:03:00;5.20;;;4.18;;
76582;SDS011;65462;52.148;7.940;2023-04-01T08:08:37;6.88;;;5.15;;
76582;SDS011;65462;52.148;7.940;2023-04-01T08:16:52;7.55;;;6.07;;
76582;SDS011;65462;52.148;7.940;2023-04-01T08:22:03;7.97;;;6.75;;
76582;SDS011;65462;52.148;7.940;2023-04-01T08:24:41;8.18;;;6.75;;
76582;SDS011;65462;52.148;7.940;2023-04-01T08:27:51;8.07;;;6.60;;
76582;SDS011;65462;52.148;7.940;2023-04-01T08:32:48;8.15;;;6.38;;
76582;SDS011;65462;52.148;7.940;2023-04-01T08:38:04;8.93;;;6.95;;
76582;SDS011;65462;52.148;7.940;2023-04-01T08:40:58;8.45;;;6.65;;
76582;SDS011;65462;52.148;7.940;2023-04-01T08:54:42;7.85;;;6.63;;
76582;SDS011;65462;52.148;7.940;2023-04-01T08:57:15;8.90;;;7.15;;
76582;SDS011;65462;52.148;7.940;2023-04-01T09:02:56;8.40;;;6.60;;
76582;SDS011;65462;52.148;7.940;2023-04-01T09:20:26;7.22;;;5.70;;
76582;SDS011;65462;52.148;7.940;2023-04-01T09:28:47;8.75;;;5.85;;
76582;SDS011;65462;52.148;7.940;2023-04-01T09:36:45;6.03;;;5.15;;
76582;SDS011;65462;52.148;7.940;2023-04-01T09:42:29;7.80;;;5.55;;
76582;SDS011;65462;52.148;7.940;2023-04-01T09:44:58;6.95;;;5.43;;
76582;SDS011;65462;52.148;7.940;2023-04-01T09:56:25;7.20;;;5.43;;
76582;SDS011;65462;52.148;7.940;2023-04-01T10:02:01;6.05;;;4.75;;
76582;SDS011;65462;52.148;7.940;2023-04-01T10:13:15;5.45;;;4.40;;
76582;SDS011;65462;52.148;7.940;2023-04-01T10:29:35;5.40;;;4.60;;
76582;SDS011;65462;52.148;7.940;2023-04-01T10:45:25;5.47;;;4.22;;
76582;SDS011;65462;52.148;7.940;2023-04-01T10:48:17;5.25;;;4.03;;
76582;SDS011;65462;52.148;7.940;2023-04-01T10:53:31;3.72;;;3.33;;
76582;SDS011;65462;52.148;7.940;2023-04-01T10:59:22;4.30;;;3.40;;
76582;SDS011;65462;52.148;7.940;2023-04-01T11:19:44;5.68;;;4.28;;
76582;SDS011;65462;52.148;7.940;2023-04-01T11:22:21;4.82;;;4.13;;
76582;SDS011;65462;52.148;7.940;2023-04-01T11:36:19;7.95;;;5.20;;
76582;SDS011;65462;52.148;7.940;2023-04-01T11:38:57;6.20;;;5.22;;
76582;SDS011;65462;52.148;7.940;2023-04-01T11:41:32;7.43;;;5.32;;
76582;SDS011;65462;52.148;7.940;2023-04-01T11:46:56;5.78;;;4.88;;
76582;SDS011;65462;52.148;7.940;2023-04-01T11:55:16;5.78;;;4.70;;
76582;SDS011;65462;52.148;7.940;2023-04-01T12:03:54;5.35;;;4.35;;
76582;SDS011;65462;52.148;7.940;2023-04-01T12:14:11;5.82;;;4.30;;
76582;SDS011;65462;52.148;7.940;2023-04-01T12:16:58;4.93;;;4.22;;
76582;SDS011;65462;52.148;7.940;2023-04-01T12:19:32;4.78;;;3.88;;
76582;SDS011;65462;52.148;7.940;2023-04-01T12:24:47;5.10;;;4.03;;
76582;SDS011;65462;52.148;7.940;2023-04-01T12:33:26;3.97;;;3.53;;
76582;SDS011;65462;52.148;7.940;2023-04-01T12:36:15;3.42;;;2.97;;
76582;SDS011;65462;52.148;7.940;2023-04-01T12:50:19;2.28;;;1.83;;
76582;SDS011;65462;52.148;7.940;2023-04-01T12:55:35;2.45;;;2.20;;
76582;SDS011;65462;52.148;7.940;2023-04-01T12:58:10;2.40;;;2.00;;
76582;SDS011;65462;52.148;7.940;2023-04-01T13:00:56;2.80;;;2.20;;
76582;SDS011;65462;52.148;7.940;2023-04-01T13:06:05;2.40;;;1.90;;
76582;SDS011;65462;52.148;7.940;2023-04-01T13:08:59;1.67;;;1.45;;
76582;SDS011;65462;52.148;7.940;2023-04-01T13:11:48;2.40;;;1.90;;
76582;SDS011;65462;52.148;7.940;2023-04-01T13:14:29;2.13;;;1.90;;
76582;SDS011;65462;52.148;7.940;2023-04-01T13:17:33;2.28;;;1.50;;
76582;SDS011;65462;52.148;7.940;2023-04-01T13:23:11;2.03;;;1.75;;
76582;SDS011;65462;52.148;7.940;2023-04-01T13:28:30;1.92;;;1.73;;
76582;SDS011;65462;52.148;7.940;2023-04-01T13:31:12;2.33;;;2.10;;
76582;SDS011;65462;52.148;7.940;2023-04-01T13:39:34;2.00;;;1.58;;
76582;SDS011;65462;52.148;7.940;2023-04-01T13:44:53;2.60;;;1.67;;
76582;SDS011;65462;52.148;7.940;2023-04-01T13:50:19;2.85;;;1.60;;
76582;SDS011;65462;52.148;7.940;2023-04-01T14:01:15;2.50;;;2.00;;
76582;SDS011;65462;52.148;7.940;2023-04-01T14:03:49;2.95;;;2.60;;
76582;SDS011;65462;52.148;7.940;2023-04-01T14:09:47;3.40;;;2.75;;
76582;SDS011;65462;52.148;7.940;2023-04-01T14:12:27;3.47;;;2.72;;
76582;SDS011;65462;52.148;7.940;2023-04-01T14:26:18;2.25;;;1.85;;
76582;SDS011;65462;52.148;7.940;2023-04-01T14:46:06;2.30;;;1.45;;
76582;SDS011;65462;52.148;7.940;2023-04-01T14:51:09;2.38;;;1.70;;
76582;SDS011;65462;52.148;7.940;2023-04-01T14:54:21;3.33;;;1.40;;
76582;SDS011;65462;52.148;7.940;2023-04-01T14:57:31;3.53;;;1.50;;
76582;SDS011;65462;52.148;7.940;2023-04-01T14:59:45;1.80;;;1.23;;
76582;SDS011;65462;52.148;7.940;2023-04-01T15:07:48;1.85;;;1.30;;
76582;SDS011;65462;52.148;7.940;2023-04-01T15:18:15;1.27;;;0.80;;
76582;SDS011;65462;52.148;7.940;2023-04-01T15:23:45;2.00;;;1.13;;
76582;SDS011;65462;52.148;7.940;2023-04-01T15:31:54;1.38;;;0.80;;
76582;SDS011;65462;52.148;7.940;2023-04-01T15:40:36;1.08;;;0.80;;
76582;SDS011;65462;52.148;7.940;2023-04-01T15:52:06;1.65;;;0.68;;
76582;SDS011;65462;52.148;7.940;2023-04-01T16:00:32;1.20;;;0.70;;
76582;SDS011;65462;52.148;7.940;2023-04-01T16:03:18;1.08;;;0.85;;
76582;SDS011;65462;52.148;7.940;2023-04-01T16:21:48;0.57;;;0.38;;
76582;SDS011;65462;52.148;7.940;2023-04-01T16:24:30;0.77;;;0.55;;
76582;SDS011;65462;52.148;7.940;2023-04-01T16:27:02;1.20;;;0.70;;
76582;SDS011;65462;52.148;7.940;2023-04-01T16:37:48;1.90;;;0.70;;
76582;SDS011;65462;52.148;7.940;2023-04-01T16:45:19;0.52;;;0.35;;
76582;SDS011;65462;52.148;7.940;2023-04-01T16:47:56;0.75;;;0.38;;
76582;SDS011;65462;52.148;7.940;2023-04-01T16:50:48;0.43;;;0.40;;
76582;SDS011;65462;52.148;7.940;2023-04-01T16:53:25;0.40;;;0.38;;
76582;SDS011;65462;52.148;7.940;2023-04-01T16:58:27;0.70;;;0.57;;
76582;SDS011;65462;52.148;7.940;2023-04-01T17:01:05;0.85;;;0.47;;
76582;SDS011;65462;52.148;7.940;2023-04-01T17:06:12;0.90;;;0.52;;
76582;SDS011;65462;52.148;7.940;2023-04-01T17:08:56;1.13;;;0.60;;
76582;SDS011;65462;52.148;7.940;2023-04-01T17:22:37;0.80;;;0.60;;
76582;SDS011;65462;52.148;7.940;2023-04-01T17:30:39;1.13;;;0.90;;
76582;SDS011;65462;52.148;7.940;2023-04-01T17:33:23;1.33;;;0.90;;
76582;SDS011;65462;52.148;7.940;2023-04-01T17:36:39;1.70;;;0.60;;
76582;SDS011;65462;52.148;7.940;2023-04-01T17:50:09;0.43;;;0.40;;
76582;SDS011;65462;52.148;7.940;2023-04-01T17:52:44;0.30;;;0.30;;
76582;SDS011;65462;52.148;7.940;2023-04-01T18:01:02;0.28;;;0.28;;
76582;SDS011;65462;52.148;7.940;2023-04-01T18:11:59;1.08;;;0.50;;
76582;SDS011;65462;52.148;7.940;2023-04-01T18:17:21;0.65;;;0.40;;
76582;SDS011;65462;52.148;7.940;2023-04-01T18:27:50;0.45;;;0.40;;
76582;SDS011;65462;52.148;7.940;2023-04-01T18:30:27;0.40;;;0.30;;
76582;SDS011;65462;52.148;7.940;2023-04-01T18:32:57;0.90;;;0.60;;
76582;SDS011;65462;52.148;7.940;2023-04-01T18:38:15;1.53;;;0.80;;
76582;SDS011;65462;52.148;7.940;2023-04-01T18:41:07;1.08;;;0.68;;
76582;SDS011;65462;52.148;7.940;2023-04-01T18:43:48;0.87;;;0.63;;
76582;SDS011;65462;52.148;7.940;2023-04-01T18:51:56;1.50;;;1.00;;
76582;SDS011;65462;52.148;7.940;2023-04-01T18:57:02;1.80;;;1.00;;
76582;SDS011;65462;52.148;7.940;2023-04-01T18:59:36;1.30;;;0.80;;
76582;SDS011;65462;52.148;7.940;2023-04-01T19:02:25;1.30;;;0.93;;
76582;SDS011;65462;52.148;7.940;2023-04-01T19:07:49;2.23;;;0.80;;
76582;SDS011;65462;52.148;7.940;2023-04-01T19:10:40;1.23;;;0.90;;
76582;SDS011;65462;52.148;7.940;2023-04-01T19:13:10;1.80;;;0.93;;
76582;SDS011;65462;52.148;7.940;2023-04-01T19:20:57;2.30;;;0.80;;
76582;SDS011;65462;52.148;7.940;2023-04-01T19:26:17;1.53;;;1.07;;
76582;SDS011;65462;52.148;7.940;2023-04-01T19:45:41;1.87;;;1.20;;
76582;SDS011;65462;52.148;7.940;2023-04-01T19:53:37;1.67;;;1.20;;
76582;SDS011;65462;52.148;7.940;2023-04-01T19:56:22;1.63;;;1.10;;
76582;SDS011;65462;52.148;7.940;2023-04-01T19:58:55;1.30;;;1.20;;
76582;SDS011;65462;52.148;7.940;2023-04-01T20:01:34;1.40;;;1.10;;
76582;SDS011;65462;52.148;7.940;2023-04-01T20:07:13;1.83;;;1.17;;
76582;SDS011;65462;52.148;7.940;2023-04-01T20:09:50;1.53;;;1.20;;
76582;SDS011;65462;52.148;7.940;2023-04-01T20:12:32;1.67;;;1.23;;
76582;SDS011;65462;52.148;7.940;2023-04-01T20:15:22;1.45;;;1.00;;
76582;SDS011;65462;52.148;7.940;2023-04-01T20:17:54;1.77;;;1.30;;
76582;SDS011;65462;52.148;7.940;2023-04-01T20:20:24;1.73;;;0.90;;
76582;SDS011;65462;52.148;7.940;2023-04-01T20:28:43;1.20;;;0.80;;
76582;SDS011;65462;52.148;7.940;2023-04-01T20:36:36;1.70;;;1.07;;
76582;SDS011;65462;52.148;7.940;2023-04-01T20:45:26;1.23;;;0.83;;
76582;SDS011;65462;52.148;7.940;2023-04-01T20:53:28;1.40;;;0.90;;
76582;SDS011;65462;52.148;7.940;2023-04-01T21:06:57;1.17;;;1.00;;
76582;SDS011;65462;52.148;7.940;2023-04-01T21:09:49;1.20;;;1.00;;
76582;SDS011;65462;52.148;7.940;2023-04-01T21:12:20;1.47;;;1.00;;
76582;SDS011;65462;52.148;7.940;2023-04-01T21:17:58;1.50;;;0.90;;
76582;SDS011;65462;52.148;7.940;2023-04-01T21:20:47;1.13;;;0.87;;
76582;SDS011;65462;52.148;7.940;2023-04-01T21:31:42;1.30;;;1.00;;
76582;SDS011;65462;52.148;7.940;2023-04-01T21:37:16;2.13;;;1.23;;
76582;SDS011;65462;52.148;7.940;2023-04-01T21:50:55;1.97;;;1.23;;
76582;SDS011;65462;52.148;7.940;2023-04-01T21:59:32;2.83;;;1.53;;
76582;SDS011;65462;52.148;7.940;2023-04-01T22:05:42;1.97;;;1.27;;
76582;SDS011;65462;52.148;7.940;2023-04-01T22:10:41;2.13;;;1.33;;
76582;SDS011;65462;52.148;7.940;2023-04-01T22:13:22;1.90;;;1.30;;
76582;SDS011;65462;52.148;7.940;2023-04-01T22:18:45;2.23;;;1.33;;
76582;SDS011;65462;52.148;7.940;2023-04-01T22:27:03;1.93;;;1.30;;
76582;SDS011;65462;52.148;7.940;2023-04-01T22:29:40;2.03;;;1.30;;
76582;SDS011;65462;52.148;7.940;2023-04-01T22:32:24;2.00;;;1.50;;
76582;SDS011;65462;52.148;7.940;2023-04-01T22:43:06;4.13;;;1.87;;
76582;SDS011;65462;52.148;7.940;2023-04-01T23:04:50;3.37;;;1.73;;
76582;SDS011;65462;52.148;7.940;2023-04-01T23:07:27;3.17;;;1.70;;
76582;SDS011;65462;52.148;7.940;2023-04-01T23:10:49;2.77;;;1.80;;
76582;SDS011;65462;52.148;7.940;2023-04-01T23:13:05;4.97;;;1.83;;
76582;SDS011;65462;52.148;7.940;2023-04-01T23:15:37;3.13;;;1.87;;
76582;SDS011;65462;52.148;7.940;2023-04-01T23:26:17;2.53;;;1.60;;
76582;SDS011;65462;52.148;7.940;2023-04-01T23:28:51;3.63;;;1.80;;
76582;SDS011;65462;52.148;7.940;2023-04-01T23:31:25;2.60;;;1.80;;
76582;SDS011;65462;52.148;7.940;2023-04-01T23:33:53;3.20;;;2.10;;
76582;SDS011;65462;52.148;7.940;2023-04-01T23:36:23;3.23;;;1.97;;
76582;SDS011;65462;52.148;7.940;2023-04-01T23:38:49;3.63;;;2.27;;
76582;SDS011;65462;52.148;7.940;2023-04-01T23:41:20;3.90;;;2.30;;
76582;SDS011;65462;52.148;7.940;2023-04-01T23:43:56;4.40;;;2.30;;
76582;SDS011;65462;52.148;7.940;2023-04-01T23:46:25;3.60;;;2.20;;
76582;SDS011;65462;52.148;7.940;2023-04-01T23:48:51;3.03;;;1.93;;
76582;SDS011;65462;52.148;7.940;2023-04-01T23:51:19;3.80;;;2.23;;
76582;SDS011;65462;52.148;7.940;2023-04-01T23:53:58;3.77;;;2.07;;
76582;SDS011;65462;52.148;7.940;2023-04-01T23:56:35;4.27;;;2.07;;
76582;SDS011;65462;52.148;7.940;2023-04-01T23:59:03;3.67;;;2.17;;
